createdAt,value
2018-10-11T00:01:46.588Z,15.40
2018-10-11T00:04:15.046Z,15.40
2018-10-11T00:06:43.504Z,15.40
2018-10-11T00:09:11.952Z,15.40
2018-10-11T00:11:40.669Z,15.30
2018-10-11T00:14:09.355Z,15.30
2018-10-11T00:16:38.035Z,15.30
2018-10-11T00:19:06.407Z,15.10
2018-10-11T00:21:34.797Z,15.10
2018-10-11T00:24:03.199Z,15.00
2018-10-11T00:26:31.591Z,14.90
2018-10-11T00:28:59.931Z,14.90
2018-10-11T00:31:28.369Z,14.80
2018-10-11T00:33:57.235Z,14.80
2018-10-11T00:36:25.613Z,14.70
2018-10-11T00:38:53.991Z,14.80
2018-10-11T00:41:22.396Z,14.70
2018-10-11T00:43:50.912Z,14.60
2018-10-11T00:46:19.330Z,14.60
2018-10-11T00:48:47.740Z,14.60
2018-10-11T00:51:16.163Z,14.60
2018-10-11T00:53:44.636Z,14.60
2018-10-11T00:56:13.052Z,14.50
2018-10-11T00:58:41.445Z,14.50
2018-10-11T01:01:09.879Z,14.50
2018-10-11T01:03:38.277Z,14.50
2018-10-11T01:06:06.732Z,14.50
2018-10-11T01:08:35.184Z,14.40
2018-10-11T01:11:03.604Z,14.30
2018-10-11T01:13:32.067Z,14.20
2018-10-11T01:16:00.469Z,14.30
2018-10-11T01:18:28.960Z,14.20
2018-10-11T01:20:57.509Z,14.10
2018-10-11T01:23:25.884Z,14.10
2018-10-11T01:25:54.335Z,14.10
2018-10-11T01:28:23.108Z,14.20
2018-10-11T01:30:56.692Z,14.20
2018-10-11T01:33:25.164Z,14.20
2018-10-11T01:35:53.644Z,14.20
2018-10-11T01:38:22.128Z,14.10
2018-10-11T01:40:50.594Z,14.10
2018-10-11T01:43:19.052Z,14.00
2018-10-11T01:45:47.545Z,14.10
2018-10-11T01:48:15.957Z,14.00
2018-10-11T01:50:44.489Z,14.00
2018-10-11T01:53:12.941Z,14.00
2018-10-11T01:55:41.361Z,13.90
2018-10-11T01:58:09.821Z,13.90
2018-10-11T02:00:38.180Z,13.80
2018-10-11T02:03:06.621Z,13.70
2018-10-11T02:05:35.020Z,13.70
2018-10-11T02:08:03.462Z,13.70
2018-10-11T02:10:33.132Z,13.60
2018-10-11T02:13:01.515Z,13.60
2018-10-11T02:15:29.906Z,13.50
2018-10-11T02:17:58.706Z,13.50
2018-10-11T02:20:27.851Z,13.50
2018-10-11T02:22:56.343Z,13.40
2018-10-11T02:25:24.736Z,13.30
2018-10-11T02:27:53.130Z,13.20
2018-10-11T02:30:21.593Z,13.30
2018-10-11T02:32:49.986Z,13.20
2018-10-11T02:35:18.367Z,13.20
2018-10-11T02:37:46.779Z,13.20
2018-10-11T02:40:15.203Z,13.20
2018-10-11T02:42:43.641Z,13.20
2018-10-11T02:45:12.091Z,13.20
2018-10-11T02:47:40.475Z,13.20
2018-10-11T02:50:08.944Z,13.20
2018-10-11T02:52:37.354Z,13.20
2018-10-11T02:55:05.872Z,13.20
2018-10-11T02:57:45.503Z,13.20
2018-10-11T03:00:14.113Z,13.30
2018-10-11T03:02:44.135Z,13.20
2018-10-11T03:05:14.335Z,13.30
2018-10-11T03:07:43.504Z,13.20
2018-10-11T03:10:11.919Z,13.20
2018-10-11T03:12:40.312Z,13.10
2018-10-11T03:15:08.864Z,13.20
2018-10-11T03:17:37.288Z,13.10
2018-10-11T03:20:05.731Z,13.10
2018-10-11T03:22:34.217Z,13.10
2018-10-11T03:25:03.004Z,13.00
2018-10-11T03:27:31.419Z,13.00
2018-10-11T03:29:59.831Z,12.90
2018-10-11T03:32:28.193Z,12.90
2018-10-11T03:34:56.612Z,13.00
2018-10-11T03:37:25.050Z,13.00
2018-10-11T03:39:53.357Z,12.90
2018-10-11T03:42:21.782Z,13.10
2018-10-11T03:44:50.214Z,13.10
2018-10-11T03:47:18.589Z,13.10
2018-10-11T03:49:46.983Z,13.10
2018-10-11T03:52:15.374Z,13.30
2018-10-11T03:54:43.732Z,13.20
2018-10-11T03:57:12.149Z,13.20
2018-10-11T03:59:40.571Z,13.20
2018-10-11T04:02:09.035Z,13.20
2018-10-11T04:04:37.499Z,13.20
2018-10-11T04:07:05.972Z,13.20
2018-10-11T04:09:34.404Z,13.20
2018-10-11T04:12:02.782Z,13.10
2018-10-11T04:14:31.195Z,13.00
2018-10-11T04:16:59.589Z,13.10
2018-10-11T04:19:27.972Z,13.10
2018-10-11T04:21:56.390Z,13.10
2018-10-11T04:24:24.807Z,13.20
2018-10-11T04:26:53.196Z,13.10
2018-10-11T04:29:21.621Z,12.90
2018-10-11T04:31:49.983Z,12.70
2018-10-11T04:34:18.413Z,12.60
2018-10-11T04:36:46.882Z,12.60
2018-10-11T04:39:15.291Z,12.60
2018-10-11T04:41:43.691Z,12.60
2018-10-11T04:44:12.116Z,12.70
2018-10-11T04:46:40.857Z,12.60
2018-10-11T04:49:09.500Z,12.70
2018-10-11T04:51:37.835Z,12.60
2018-10-11T04:54:06.227Z,12.60
2018-10-11T04:56:34.633Z,12.60
2018-10-11T04:59:03.054Z,12.70
2018-10-11T05:01:31.441Z,12.60
2018-10-11T05:03:59.984Z,12.60
2018-10-11T05:06:28.409Z,12.70
2018-10-11T05:08:56.791Z,12.70
2018-10-11T05:11:25.323Z,12.70
2018-10-11T05:13:54.047Z,12.60
2018-10-11T05:16:22.487Z,12.60
2018-10-11T05:18:54.839Z,12.50
2018-10-11T05:21:23.365Z,12.50
2018-10-11T05:23:51.724Z,12.50
2018-10-11T05:26:20.211Z,12.40
2018-10-11T05:28:48.613Z,12.40
2018-10-11T05:31:17.107Z,12.40
2018-10-11T05:33:45.555Z,12.30
2018-10-11T05:36:14.589Z,12.30
2018-10-11T05:38:43.632Z,12.40
2018-10-11T05:41:12.526Z,12.40
2018-10-11T05:43:42.036Z,12.30
2018-10-11T05:46:17.671Z,12.20
2018-10-11T05:48:46.243Z,12.50
2018-10-11T05:51:14.684Z,12.60
2018-10-11T05:53:43.120Z,12.70
2018-10-11T05:56:11.630Z,12.80
2018-10-11T05:58:40.136Z,12.90
2018-10-11T06:01:08.534Z,13.10
2018-10-11T06:03:36.990Z,13.40
2018-10-11T06:06:05.710Z,13.60
2018-10-11T06:08:34.736Z,13.90
2018-10-11T06:11:03.210Z,14.10
2018-10-11T06:13:31.629Z,14.40
2018-10-11T06:16:00.072Z,14.70
2018-10-11T06:18:28.585Z,15.00
2018-10-11T06:20:56.992Z,15.30
2018-10-11T06:23:25.501Z,15.60
2018-10-11T06:25:53.860Z,15.70
2018-10-11T06:28:23.089Z,15.70
2018-10-11T06:30:51.551Z,15.60
2018-10-11T06:33:20.023Z,15.70
2018-10-11T06:35:48.510Z,15.70
2018-10-11T06:38:16.946Z,16.20
2018-10-11T06:40:45.447Z,16.00
2018-10-11T06:43:13.914Z,16.30
2018-10-11T06:45:43.171Z,16.40
2018-10-11T06:48:11.604Z,16.30
2018-10-11T06:50:41.758Z,16.40
2018-10-11T06:53:10.199Z,16.40
2018-10-11T06:55:38.599Z,16.60
2018-10-11T06:58:07.250Z,16.70
2018-10-11T07:00:35.757Z,16.90
2018-10-11T07:03:04.218Z,17.60
2018-10-11T07:05:32.612Z,18.40
2018-10-11T07:08:01.008Z,19.40
2018-10-11T07:10:29.393Z,19.10
2018-10-11T07:12:57.807Z,19.00
2018-10-11T07:15:26.139Z,19.40
2018-10-11T07:17:54.574Z,19.10
2018-10-11T07:20:22.996Z,19.10
2018-10-11T07:22:51.395Z,18.60
2018-10-11T07:25:19.841Z,19.20
2018-10-11T07:27:48.348Z,19.10
2018-10-11T07:30:16.762Z,20.00
2018-10-11T07:32:45.149Z,20.10
2018-10-11T07:35:13.734Z,20.00
2018-10-11T07:37:42.196Z,21.20
2018-10-11T07:40:10.655Z,20.70
2018-10-11T07:42:39.108Z,20.30
2018-10-11T07:45:07.524Z,21.00
2018-10-11T07:47:35.938Z,21.80
2018-10-11T07:50:20.990Z,21.60
2018-10-11T07:52:49.422Z,21.30
2018-10-11T07:55:17.824Z,21.50
2018-10-11T07:57:46.269Z,21.20
2018-10-11T08:00:14.685Z,21.00
2018-10-11T08:02:44.108Z,22.00
2018-10-11T08:05:12.520Z,21.70
2018-10-11T08:07:41.067Z,20.80
2018-10-11T08:10:09.527Z,20.90
2018-10-11T08:12:37.997Z,21.70
2018-10-11T08:15:06.551Z,21.40
2018-10-11T08:17:35.251Z,22.10
2018-10-11T08:20:03.441Z,22.20
2018-10-11T08:22:31.823Z,22.30
2018-10-11T08:25:00.389Z,23.40
2018-10-11T08:27:28.753Z,24.10
2018-10-11T08:29:57.181Z,23.30
2018-10-11T08:32:25.736Z,22.80
2018-10-11T08:34:54.014Z,22.80
2018-10-11T08:37:22.460Z,23.70
2018-10-11T08:39:50.827Z,23.00
2018-10-11T08:42:19.261Z,22.60
2018-10-11T08:44:47.652Z,24.00
2018-10-11T08:47:16.036Z,23.10
2018-10-11T08:49:44.441Z,23.00
2018-10-11T08:52:12.876Z,22.40
2018-10-11T08:54:44.296Z,23.00
2018-10-11T08:57:12.764Z,23.10
2018-10-11T08:59:41.285Z,23.40
2018-10-11T09:02:09.561Z,22.60
2018-10-11T09:04:37.960Z,22.70
2018-10-11T09:07:06.716Z,23.30
2018-10-11T09:09:35.245Z,23.80
2018-10-11T09:12:03.608Z,24.90
2018-10-11T09:14:32.020Z,25.20
2018-10-11T09:17:00.443Z,24.60
2018-10-11T09:19:28.885Z,25.00
2018-10-11T09:21:57.300Z,24.90
2018-10-11T09:24:25.696Z,24.40
2018-10-11T09:26:54.157Z,24.30
2018-10-11T09:29:22.541Z,25.70
2018-10-11T09:31:51.029Z,25.20
2018-10-11T09:34:19.417Z,24.90
2018-10-11T09:36:47.797Z,24.40
2018-10-11T09:39:16.309Z,24.80
2018-10-11T09:41:44.713Z,24.80
2018-10-11T09:44:13.082Z,26.80
2018-10-11T09:46:41.482Z,26.10
2018-10-11T09:49:09.885Z,25.30
2018-10-11T09:51:38.283Z,24.90
2018-10-11T09:54:06.745Z,24.90
2018-10-11T09:57:21.376Z,24.70
2018-10-11T09:59:49.792Z,25.20
2018-10-11T10:02:18.212Z,24.80
2018-10-11T10:04:49.005Z,25.00
2018-10-11T10:07:17.418Z,25.50
2018-10-11T10:09:46.444Z,26.30
2018-10-11T10:12:15.363Z,25.80
2018-10-11T10:14:44.404Z,25.00
2018-10-11T10:17:12.884Z,25.30
2018-10-11T10:19:41.999Z,25.60
2018-10-11T10:22:10.393Z,25.00
2018-10-11T10:24:38.799Z,25.60
2018-10-11T10:27:07.399Z,25.60
2018-10-11T10:29:36.011Z,25.70
2018-10-11T10:32:04.789Z,25.20
2018-10-11T10:34:33.206Z,25.90
2018-10-11T10:37:01.822Z,25.70
2018-10-11T10:39:30.208Z,25.40
2018-10-11T10:41:58.554Z,25.60
2018-10-11T10:44:26.952Z,24.80
2018-10-11T10:46:55.372Z,25.50
2018-10-11T10:49:23.763Z,25.90
2018-10-11T10:51:52.193Z,26.70
2018-10-11T10:54:34.106Z,26.10
2018-10-11T10:57:02.962Z,26.40
2018-10-11T10:59:31.659Z,26.40
2018-10-11T11:02:00.050Z,25.80
2018-10-11T11:04:28.540Z,25.50
2018-10-11T11:06:56.985Z,25.80
2018-10-11T11:09:25.379Z,25.40
2018-10-11T11:11:53.798Z,25.80
2018-10-11T11:14:22.144Z,26.10
2018-10-11T11:16:50.617Z,25.60
2018-10-11T11:19:18.988Z,26.00
2018-10-11T11:21:47.374Z,26.70
2018-10-11T11:24:15.796Z,26.00
2018-10-11T11:26:44.196Z,26.00
2018-10-11T11:29:12.588Z,25.50
2018-10-11T11:31:41.049Z,25.60
2018-10-11T11:34:09.516Z,26.30
2018-10-11T11:36:38.030Z,26.50
2018-10-11T11:39:08.832Z,26.20
2018-10-11T11:41:37.452Z,25.80
2018-10-11T11:44:05.891Z,26.50
2018-10-11T11:46:34.384Z,26.60
2018-10-11T11:49:02.813Z,27.40
2018-10-11T11:51:31.248Z,26.60
2018-10-11T11:53:59.654Z,26.60
2018-10-11T11:56:28.099Z,26.30
2018-10-11T11:58:56.560Z,25.90
2018-10-11T12:01:24.989Z,25.90
2018-10-11T12:03:53.379Z,26.50
2018-10-11T12:06:21.827Z,26.70
2018-10-11T12:08:50.219Z,26.30
2018-10-11T12:11:18.605Z,26.60
2018-10-11T12:13:47.039Z,27.00
2018-10-11T12:16:15.441Z,27.50
2018-10-11T12:18:43.865Z,27.30
2018-10-11T12:21:12.271Z,27.00
2018-10-11T12:23:40.780Z,26.50
2018-10-11T12:26:09.277Z,27.20
2018-10-11T12:28:37.813Z,26.70
2018-10-11T12:31:06.750Z,27.00
2018-10-11T12:33:35.140Z,26.60
2018-10-11T12:36:03.539Z,26.50
2018-10-11T12:38:32.056Z,27.00
2018-10-11T12:41:01.311Z,26.70
2018-10-11T12:43:29.071Z,26.60
2018-10-11T12:45:57.530Z,27.30
2018-10-11T12:48:25.941Z,27.40
2018-10-11T12:50:54.377Z,27.40
2018-10-11T12:53:22.786Z,27.00
2018-10-11T12:55:51.212Z,27.80
2018-10-11T12:58:19.622Z,27.40
2018-10-11T13:00:48.073Z,27.10
2018-10-11T13:03:16.484Z,27.20
2018-10-11T13:05:44.894Z,27.10
2018-10-11T13:08:13.320Z,26.60
2018-10-11T13:10:41.736Z,26.50
2018-10-11T13:13:10.203Z,26.30
2018-10-11T13:15:38.657Z,26.10
2018-10-11T13:18:07.014Z,26.20
2018-10-11T13:20:35.417Z,26.10
2018-10-11T13:23:03.855Z,26.30
2018-10-11T13:25:32.322Z,26.70
2018-10-11T13:28:00.736Z,26.50
2018-10-11T13:30:29.180Z,26.40
2018-10-11T13:32:57.570Z,26.40
2018-10-11T13:35:25.979Z,26.30
2018-10-11T13:37:54.412Z,26.40
2018-10-11T13:40:22.891Z,26.20
2018-10-11T13:42:51.308Z,26.10
2018-10-11T13:45:19.702Z,26.40
2018-10-11T13:47:48.532Z,26.40
2018-10-11T13:50:16.932Z,26.30
2018-10-11T13:52:45.375Z,25.70
2018-10-11T13:55:15.430Z,25.60
2018-10-11T13:57:42.243Z,25.80
2018-10-11T14:00:10.649Z,26.00
2018-10-11T14:02:39.056Z,26.00
2018-10-11T14:05:07.557Z,25.80
2018-10-11T14:07:35.989Z,25.30
2018-10-11T14:10:04.420Z,25.10
2018-10-11T14:12:32.869Z,25.10
2018-10-11T14:15:01.339Z,25.00
2018-10-11T14:17:29.828Z,24.90
2018-10-11T14:19:58.205Z,24.80
2018-10-11T14:22:26.640Z,24.90
2018-10-11T14:24:55.141Z,24.90
2018-10-11T14:27:23.572Z,24.70
2018-10-11T14:29:51.977Z,24.50
2018-10-11T14:32:20.471Z,24.40
2018-10-11T14:34:49.116Z,24.40
2018-10-11T14:37:17.645Z,24.30
2018-10-11T14:39:45.943Z,24.20
2018-10-11T14:42:14.485Z,24.20
2018-10-11T14:44:42.866Z,24.20
2018-10-11T14:47:11.286Z,24.20
2018-10-11T14:49:39.757Z,24.10
2018-10-11T14:52:08.180Z,24.10
2018-10-11T14:54:36.620Z,24.00
2018-10-11T14:57:06.564Z,24.00
2018-10-11T14:59:35.251Z,23.90
2018-10-11T15:02:04.272Z,24.00
2018-10-11T15:04:33.232Z,24.00
2018-10-11T15:07:01.681Z,23.90
2018-10-11T15:09:30.059Z,23.90
2018-10-11T15:11:58.471Z,23.80
2018-10-11T15:14:26.929Z,23.80
2018-10-11T15:16:55.949Z,23.70
2018-10-11T15:19:24.323Z,23.70
2018-10-11T15:21:52.727Z,23.70
2018-10-11T15:24:21.119Z,23.60
2018-10-11T15:26:49.818Z,23.50
2018-10-11T15:29:18.226Z,23.50
2018-10-11T15:31:46.622Z,23.50
2018-10-11T15:34:15.339Z,23.40
2018-10-11T15:36:43.765Z,23.30
2018-10-11T15:39:13.170Z,23.30
2018-10-11T15:41:41.754Z,23.30
2018-10-11T15:44:11.505Z,23.20
2018-10-11T15:46:40.104Z,23.10
2018-10-11T15:49:09.141Z,23.00
2018-10-11T15:51:37.818Z,23.00
2018-10-11T15:54:06.440Z,22.90
2018-10-11T15:56:34.820Z,22.90
2018-10-11T15:59:03.307Z,22.80
2018-10-11T16:01:31.742Z,22.70
2018-10-11T16:04:00.187Z,22.60
2018-10-11T16:06:28.656Z,22.50
2018-10-11T16:08:57.096Z,22.50
2018-10-11T16:11:25.670Z,22.30
2018-10-11T16:13:54.616Z,22.20
2018-10-11T16:16:23.114Z,22.20
2018-10-11T16:18:51.469Z,22.10
2018-10-11T16:21:19.919Z,22.00
2018-10-11T16:23:48.293Z,22.00
2018-10-11T16:26:16.726Z,21.90
2018-10-11T16:28:45.104Z,21.70
2018-10-11T16:31:13.560Z,21.70
2018-10-11T16:33:42.026Z,21.60
2018-10-11T16:36:10.492Z,21.40
2018-10-11T16:38:38.950Z,21.40
2018-10-11T16:41:07.519Z,21.30
2018-10-11T16:43:35.872Z,21.20
2018-10-11T16:46:04.264Z,21.10
2018-10-11T16:48:32.632Z,21.00
2018-10-11T16:51:01.098Z,20.90
2018-10-11T16:53:29.500Z,20.80
2018-10-11T16:55:57.962Z,20.60
2018-10-11T16:58:27.071Z,20.50
2018-10-11T17:00:55.519Z,20.40
2018-10-11T17:03:24.194Z,20.50
2018-10-11T17:05:52.631Z,20.50
2018-10-11T17:08:21.147Z,20.30
2018-10-11T17:10:49.522Z,20.30
2018-10-11T17:13:17.947Z,20.10
2018-10-11T17:15:46.651Z,20.10
2018-10-11T17:18:15.085Z,20.10
2018-10-11T17:20:43.530Z,20.00
2018-10-11T17:23:12.773Z,20.00
2018-10-11T17:25:42.165Z,20.00
2018-10-11T17:28:10.603Z,19.80
2018-10-11T17:30:38.959Z,19.80
2018-10-11T17:33:07.336Z,19.70
2018-10-11T17:35:35.764Z,19.70
2018-10-11T17:38:04.280Z,19.50
2018-10-11T17:40:32.689Z,19.40
2018-10-11T17:43:01.071Z,19.30
2018-10-11T17:45:29.595Z,19.50
2018-10-11T17:47:58.052Z,19.40
2018-10-11T17:50:26.508Z,19.40
2018-10-11T17:52:54.812Z,19.40
2018-10-11T17:55:23.208Z,19.30
2018-10-11T17:57:51.650Z,19.20
2018-10-11T18:00:20.106Z,19.00
2018-10-11T18:02:48.480Z,18.90
2018-10-11T18:05:16.912Z,19.00
2018-10-11T18:07:45.358Z,19.10
2018-10-11T18:10:13.744Z,19.10
2018-10-11T18:12:42.304Z,19.10
2018-10-11T18:15:10.816Z,19.10
2018-10-11T18:17:39.283Z,19.00
2018-10-11T18:20:07.908Z,19.00
2018-10-11T18:22:36.328Z,18.90
2018-10-11T18:25:04.808Z,18.90
2018-10-11T18:27:33.674Z,18.90
2018-10-11T18:30:02.117Z,18.80
2018-10-11T18:32:30.572Z,18.80
2018-10-11T18:34:58.931Z,18.70
2018-10-11T18:37:27.362Z,18.70
2018-10-11T18:39:55.783Z,18.60
2018-10-11T18:42:24.620Z,18.60
2018-10-11T18:44:53.052Z,18.50
2018-10-11T18:47:21.619Z,18.40
2018-10-11T18:49:50.076Z,18.30
2018-10-11T18:52:18.596Z,18.30
2018-10-11T18:54:48.657Z,18.10
2018-10-11T18:57:17.231Z,18.00
2018-10-11T18:59:45.819Z,17.80
2018-10-11T19:02:14.704Z,17.90
2018-10-11T19:04:43.258Z,17.80
2018-10-11T19:07:11.928Z,17.80
2018-10-11T19:09:40.505Z,17.80
2018-10-11T19:12:09.478Z,17.70
2018-10-11T19:14:38.032Z,17.50
2018-10-11T19:17:06.653Z,17.40
2018-10-11T19:19:35.147Z,17.50
2018-10-11T19:22:03.797Z,17.40
2018-10-11T19:24:32.306Z,17.50
2018-10-11T19:27:01.722Z,17.60
2018-10-11T19:29:30.282Z,17.50
2018-10-11T19:31:58.799Z,17.40
2018-10-11T19:34:27.221Z,17.30
2018-10-11T19:36:56.320Z,17.20
2018-10-11T19:39:25.358Z,17.10
2018-10-11T19:41:54.167Z,17.10
2018-10-11T19:44:22.597Z,17.00
2018-10-11T19:46:51.081Z,16.90
2018-10-11T19:49:19.807Z,16.80
2018-10-11T19:51:48.365Z,16.70
2018-10-11T19:54:18.049Z,16.70
2018-10-11T19:56:46.713Z,16.60
2018-10-11T19:59:15.193Z,16.60
2018-10-11T20:01:43.674Z,16.60
2018-10-11T20:04:12.195Z,16.60
2018-10-11T20:06:41.118Z,16.50
2018-10-11T20:09:09.904Z,16.50
2018-10-11T20:11:38.443Z,16.40
2018-10-11T20:14:07.039Z,16.40
2018-10-11T20:16:35.602Z,16.40
2018-10-11T20:19:03.977Z,16.40
2018-10-11T20:21:32.338Z,16.40
2018-10-11T20:24:00.742Z,16.30
2018-10-11T20:26:29.268Z,16.30
2018-10-11T20:28:57.591Z,16.20
2018-10-11T20:31:26.080Z,16.20
2018-10-11T20:33:54.456Z,16.10
2018-10-11T20:36:22.860Z,16.10
2018-10-11T20:38:51.314Z,16.10
2018-10-11T20:41:20.309Z,16.10
2018-10-11T20:43:48.749Z,16.00
2018-10-11T20:46:17.135Z,15.90
2018-10-11T20:48:45.589Z,15.90
2018-10-11T20:51:14.031Z,15.90
2018-10-11T20:53:42.393Z,15.90
2018-10-11T20:56:10.855Z,15.90
2018-10-11T20:58:39.230Z,15.80
2018-10-11T21:01:07.691Z,15.80
2018-10-11T21:03:36.237Z,15.80
2018-10-11T21:06:04.848Z,15.80
2018-10-11T21:08:33.222Z,15.70
2018-10-11T21:11:01.675Z,15.70
2018-10-11T21:13:30.087Z,15.60
2018-10-11T21:15:58.495Z,15.60
2018-10-11T21:18:27.108Z,15.60
2018-10-11T21:20:55.675Z,15.50
2018-10-11T21:23:24.063Z,15.50
2018-10-11T21:25:52.480Z,15.40
2018-10-11T21:28:20.968Z,15.40
2018-10-11T21:30:49.358Z,15.30
2018-10-11T21:33:17.772Z,15.30
2018-10-11T21:35:46.192Z,15.30
2018-10-11T21:38:14.603Z,15.20
2018-10-11T21:40:43.144Z,15.20
2018-10-11T21:43:12.108Z,15.10
2018-10-11T21:45:40.484Z,15.10
2018-10-11T21:48:09.000Z,15.10
2018-10-11T21:50:38.811Z,15.10
2018-10-11T21:53:07.404Z,15.10
2018-10-11T21:55:35.860Z,15.10
2018-10-11T21:58:04.592Z,15.00
2018-10-11T22:00:38.392Z,15.00
2018-10-11T22:03:06.824Z,14.90
2018-10-11T22:05:35.354Z,14.90
2018-10-11T22:08:04.031Z,14.90
2018-10-11T22:10:32.428Z,14.70
2018-10-11T22:13:00.855Z,14.70
2018-10-11T22:15:29.256Z,14.80
2018-10-11T22:17:57.636Z,14.70
2018-10-11T22:20:26.025Z,14.70
2018-10-11T22:22:54.754Z,14.60
2018-10-11T22:25:23.502Z,14.60
2018-10-11T22:27:51.858Z,14.50
2018-10-11T22:30:20.256Z,14.60
2018-10-11T22:32:49.067Z,14.60
2018-10-11T22:35:17.499Z,14.50
2018-10-11T22:37:45.955Z,14.50
2018-10-11T22:40:14.410Z,14.40
2018-10-11T22:42:42.905Z,14.30
2018-10-11T22:45:11.350Z,14.30
2018-10-11T22:47:40.476Z,14.20
2018-10-11T22:50:09.060Z,14.20
2018-10-11T22:52:37.552Z,14.20
2018-10-11T22:55:06.058Z,14.20
2018-10-11T22:57:34.479Z,14.10
2018-10-11T23:00:02.911Z,14.10
2018-10-11T23:02:31.343Z,14.10
2018-10-11T23:04:59.779Z,14.10
2018-10-11T23:07:28.202Z,14.00
2018-10-11T23:09:56.611Z,14.00
2018-10-11T23:12:25.052Z,14.00
2018-10-11T23:14:53.527Z,14.00
2018-10-11T23:17:21.908Z,13.90
2018-10-11T23:19:50.299Z,14.00
2018-10-11T23:22:18.710Z,14.00
2018-10-11T23:24:47.056Z,14.00
2018-10-11T23:27:15.446Z,13.90
2018-10-11T23:29:43.815Z,13.90
2018-10-11T23:32:12.172Z,13.90
2018-10-11T23:34:40.667Z,13.80
2018-10-11T23:37:09.281Z,13.80
2018-10-11T23:39:37.683Z,13.80
2018-10-11T23:42:06.113Z,13.80
2018-10-11T23:44:34.520Z,13.70
2018-10-11T23:47:02.905Z,13.60
2018-10-11T23:49:31.281Z,13.50
2018-10-11T23:51:59.741Z,13.50
2018-10-11T23:54:28.107Z,13.50
2018-10-11T23:56:56.607Z,13.40
2018-10-11T23:59:25.207Z,13.50
